createdAt,value
2019-02-08T00:01:07.292Z,100817.04
2019-02-08T00:03:36.547Z,100814.12
2019-02-08T00:06:06.102Z,100810.37
2019-02-08T00:08:35.627Z,100812.88
2019-02-08T00:11:06.176Z,100819.47
2019-02-08T00:13:36.461Z,100819.41
2019-02-08T00:16:05.775Z,100814.96
2019-02-08T00:18:35.433Z,100817.50
2019-02-08T00:21:05.959Z,100814.50
2019-02-08T00:23:35.401Z,100813.91
2019-02-08T00:26:04.844Z,100818.39
2019-02-08T00:28:34.257Z,100822.95
2019-02-08T00:31:03.677Z,100810.16
2019-02-08T00:33:33.195Z,100817.16
2019-02-08T00:36:03.067Z,100822.81
2019-02-08T00:38:32.568Z,100822.75
2019-02-08T00:41:01.847Z,100826.45
2019-02-08T00:43:31.304Z,100823.02
2019-02-08T00:46:00.822Z,100817.34
2019-02-08T00:48:30.075Z,100819.53
2019-02-08T00:50:59.531Z,100812.42
2019-02-08T00:53:33.379Z,100808.82
2019-02-08T00:55:59.863Z,100811.81
2019-02-08T00:58:29.213Z,100812.41
2019-02-08T01:00:58.795Z,100815.88
2019-02-08T01:03:28.229Z,100811.31
2019-02-08T01:05:57.652Z,100810.30
2019-02-08T01:08:26.897Z,100814.16
2019-02-08T01:10:57.055Z,100813.30
2019-02-08T01:13:26.281Z,100806.76
2019-02-08T01:15:55.534Z,100809.28
2019-02-08T01:18:24.768Z,100805.85
2019-02-08T01:20:54.073Z,100804.81
2019-02-08T01:23:23.570Z,100806.63
2019-02-08T01:25:52.824Z,100800.50
2019-02-08T01:28:22.127Z,100799.89
2019-02-08T01:30:51.372Z,100799.05
2019-02-08T01:33:20.656Z,100803.84
2019-02-08T01:35:49.901Z,100793.77
2019-02-08T01:38:19.134Z,100792.31
2019-02-08T01:40:49.393Z,100798.06
2019-02-08T01:43:18.654Z,100801.17
2019-02-08T01:45:47.899Z,100792.56
2019-02-08T01:48:17.128Z,100795.42
2019-02-08T01:50:46.400Z,100796.87
2019-02-08T01:53:15.637Z,100798.41
2019-02-08T01:55:44.915Z,100801.58
2019-02-08T01:58:14.147Z,100795.09
2019-02-08T02:00:44.476Z,100794.69
2019-02-08T02:03:13.862Z,100796.14
2019-02-08T02:05:44.112Z,100794.48
2019-02-08T02:08:13.345Z,100802.45
2019-02-08T02:10:44.979Z,100798.05
2019-02-08T02:13:14.184Z,100794.92
2019-02-08T02:15:44.436Z,100795.26
2019-02-08T02:18:13.924Z,100799.80
2019-02-08T02:20:44.642Z,100792.95
2019-02-08T02:23:15.417Z,100801.14
2019-02-08T02:25:45.398Z,100800.91
2019-02-08T02:28:14.649Z,100798.76
2019-02-08T02:30:43.969Z,100794.52
2019-02-08T02:33:14.018Z,100800.72
2019-02-08T02:35:43.325Z,100804.34
2019-02-08T02:38:12.569Z,100806.26
2019-02-08T02:40:42.780Z,100803.31
2019-02-08T02:43:12.184Z,100801.11
2019-02-08T02:45:41.488Z,100793.95
2019-02-08T02:48:13.213Z,100797.71
2019-02-08T02:50:42.549Z,100796.75
2019-02-08T02:53:12.416Z,100793.73
2019-02-08T02:55:42.592Z,100786.55
2019-02-08T02:58:11.853Z,100786.90
2019-02-08T03:00:43.711Z,100785.48
2019-02-08T03:03:14.245Z,100785.61
2019-02-08T03:05:43.580Z,100790.50
2019-02-08T03:08:15.147Z,100787.83
2019-02-08T03:10:45.614Z,100788.34
2019-02-08T03:13:14.937Z,100798.58
2019-02-08T03:15:44.229Z,100787.16
2019-02-08T03:18:13.455Z,100781.06
2019-02-08T03:20:43.691Z,100779.13
2019-02-08T03:23:14.085Z,100773.17
2019-02-08T03:25:43.324Z,100774.77
2019-02-08T03:28:12.558Z,100781.23
2019-02-08T03:30:44.385Z,100778.73
2019-02-08T03:33:13.633Z,100765.88
2019-02-08T03:35:42.876Z,100773.81
2019-02-08T03:38:12.094Z,100771.32
2019-02-08T03:40:41.368Z,100768.36
2019-02-08T03:43:11.672Z,100765.22
2019-02-08T03:45:42.603Z,100758.83
2019-02-08T03:48:12.180Z,100761.61
2019-02-08T03:50:41.432Z,100755.10
2019-02-08T03:53:11.901Z,100753.39
2019-02-08T03:55:41.164Z,100760.33
2019-02-08T03:58:10.547Z,100754.84
2019-02-08T04:00:41.512Z,100752.31
2019-02-08T04:03:10.809Z,100753.21
2019-02-08T04:05:40.061Z,100752.66
2019-02-08T04:08:09.300Z,100750.56
2019-02-08T04:10:38.616Z,100745.42
2019-02-08T04:13:08.858Z,100739.73
2019-02-08T04:15:39.121Z,100742.20
2019-02-08T04:18:08.434Z,100736.38
2019-02-08T04:20:37.691Z,100741.14
2019-02-08T04:23:06.933Z,100735.23
2019-02-08T04:25:36.151Z,100739.95
2019-02-08T04:28:05.849Z,100741.20
2019-02-08T04:30:36.084Z,100742.25
2019-02-08T04:33:05.805Z,100740.70
2019-02-08T04:35:35.020Z,100736.18
2019-02-08T04:38:04.391Z,100739.28
2019-02-08T04:40:35.534Z,100738.16
2019-02-08T04:43:05.838Z,100739.91
2019-02-08T04:45:35.149Z,100737.24
2019-02-08T04:48:04.546Z,100749.06
2019-02-08T04:50:33.794Z,100752.66
2019-02-08T04:53:03.108Z,100744.73
2019-02-08T04:55:32.455Z,100739.94
2019-02-08T04:58:01.687Z,100740.27
2019-02-08T05:00:33.422Z,100733.36
2019-02-08T05:03:02.901Z,100732.02
2019-02-08T05:05:33.196Z,100728.44
2019-02-08T05:08:02.458Z,100731.16
2019-02-08T05:10:33.535Z,100728.25
2019-02-08T05:13:02.795Z,100723.55
2019-02-08T05:15:32.057Z,100720.37
2019-02-08T05:18:01.311Z,100722.87
2019-02-08T05:20:37.021Z,100721.10
2019-02-08T05:23:06.276Z,100719.13
2019-02-08T05:25:35.558Z,100719.77
2019-02-08T05:28:05.056Z,100720.69
2019-02-08T05:30:35.849Z,100722.02
2019-02-08T05:33:05.651Z,100718.44
2019-02-08T05:35:35.021Z,100716.99
2019-02-08T05:38:04.585Z,100715.56
2019-02-08T05:40:33.855Z,100711.64
2019-02-08T05:43:03.079Z,100709.98
2019-02-08T05:45:32.382Z,100705.34
2019-02-08T05:48:01.641Z,100696.82
2019-02-08T05:50:31.859Z,100695.78
2019-02-08T05:53:02.058Z,100699.70
2019-02-08T05:55:32.161Z,100690.73
2019-02-08T05:58:01.477Z,100695.59
2019-02-08T06:00:35.692Z,100692.27
2019-02-08T06:03:07.631Z,100694.34
2019-02-08T06:05:37.601Z,100697.73
2019-02-08T06:08:07.688Z,100689.20
2019-02-08T06:10:37.990Z,100683.45
2019-02-08T06:13:08.272Z,100683.45
2019-02-08T06:15:40.975Z,100679.27
2019-02-08T06:18:10.790Z,100675.25
2019-02-08T06:20:40.214Z,100680.41
2019-02-08T06:23:09.580Z,100687.99
2019-02-08T06:25:38.812Z,100681.64
2019-02-08T06:28:09.046Z,100690.56
2019-02-08T06:30:41.341Z,100684.30
2019-02-08T06:33:10.651Z,100695.18
2019-02-08T06:35:39.884Z,100688.55
2019-02-08T06:38:09.171Z,100689.19
2019-02-08T06:40:41.070Z,100694.80
2019-02-08T06:43:12.227Z,100689.35
2019-02-08T06:45:41.626Z,100692.97
2019-02-08T06:48:11.587Z,100693.91
2019-02-08T06:50:40.921Z,100699.58
2019-02-08T06:53:10.218Z,100701.13
2019-02-08T06:55:39.475Z,100693.42
2019-02-08T06:58:11.477Z,100693.73
2019-02-08T07:00:42.351Z,100697.23
2019-02-08T07:03:16.186Z,100699.09
2019-02-08T07:05:55.556Z,100705.36
2019-02-08T07:08:41.287Z,100703.64
2019-02-08T07:11:20.824Z,100698.17
2019-02-08T07:14:10.151Z,100691.48
2019-02-08T07:16:43.999Z,100696.62
2019-02-08T07:19:30.035Z,100700.75
2019-02-08T07:22:16.135Z,100690.95
2019-02-08T07:24:49.702Z,100692.72
2019-02-08T07:27:26.067Z,100690.75
2019-02-08T07:30:00.551Z,100689.62
2019-02-08T07:32:31.422Z,100686.52
2019-02-08T07:35:02.552Z,100690.46
2019-02-08T07:37:52.727Z,100680.25
2019-02-08T07:40:29.914Z,100688.00
2019-02-08T07:43:09.010Z,100687.47
2019-02-08T07:45:54.930Z,100686.84
2019-02-08T07:48:34.955Z,100688.48
2019-02-08T07:51:17.832Z,100686.45
2019-02-08T07:54:05.688Z,100693.42
2019-02-08T07:56:37.589Z,100698.38
2019-02-08T07:59:13.938Z,100692.32
2019-02-08T08:01:50.546Z,100690.69
2019-02-08T08:04:24.096Z,100695.84
2019-02-08T08:06:57.984Z,100684.50
2019-02-08T08:09:32.314Z,100689.44
2019-02-08T08:12:19.523Z,100690.77
2019-02-08T08:14:56.565Z,100697.48
2019-02-08T08:17:27.419Z,100697.78
2019-02-08T08:20:12.890Z,100694.47
2019-02-08T08:22:47.506Z,100697.87
2019-02-08T08:25:25.610Z,100697.98
2019-02-08T08:27:56.482Z,100694.08
2019-02-08T08:30:29.508Z,100690.77
2019-02-08T08:33:02.011Z,100693.65
2019-02-08T08:35:44.511Z,100692.03
2019-02-08T08:38:22.754Z,100688.02
2019-02-08T08:40:58.931Z,100686.03
2019-02-08T08:43:36.870Z,100685.52
2019-02-08T08:46:19.093Z,100694.47
2019-02-08T08:48:57.517Z,100683.36
2019-02-08T08:51:39.804Z,100689.95
2019-02-08T08:54:31.191Z,100687.27
2019-02-08T08:57:07.935Z,100682.34
2019-02-08T09:00:04.992Z,100681.80
2019-02-08T09:03:02.131Z,100679.34
2019-02-08T09:06:08.490Z,100683.77
2019-02-08T09:08:38.796Z,100686.14
2019-02-08T09:11:33.467Z,100678.62
2019-02-08T09:14:11.435Z,100681.30
2019-02-08T09:17:06.477Z,100681.95
2019-02-08T09:20:07.447Z,100676.97
2019-02-08T09:22:39.886Z,100665.44
2019-02-08T09:25:38.879Z,100665.73
2019-02-08T09:28:12.315Z,100668.96
2019-02-08T09:30:57.604Z,100662.27
2019-02-08T09:33:36.372Z,100661.22
2019-02-08T09:36:24.026Z,100664.61
2019-02-08T09:39:23.285Z,100660.26
2019-02-08T09:42:07.382Z,100654.81
2019-02-08T09:45:08.431Z,100656.98
2019-02-08T09:47:40.889Z,100646.45
2019-02-08T09:50:28.232Z,100651.60
2019-02-08T09:53:22.916Z,100648.38
2019-02-08T09:56:11.987Z,100647.11
2019-02-08T09:59:00.465Z,100637.28
2019-02-08T10:01:32.874Z,100636.06
2019-02-08T10:04:26.301Z,100631.42
2019-02-08T10:07:22.274Z,100636.13
2019-02-08T10:09:54.770Z,100629.80
2019-02-08T10:12:57.014Z,100626.09
2019-02-08T10:15:48.333Z,100628.77
2019-02-08T10:18:37.026Z,100618.45
2019-02-08T10:21:29.804Z,100617.34
2019-02-08T10:24:14.354Z,100607.05
2019-02-08T10:27:19.231Z,100611.07
2019-02-08T10:30:15.639Z,100610.04
2019-02-08T10:33:13.408Z,100611.38
2019-02-08T10:36:00.889Z,100612.41
2019-02-08T10:38:54.127Z,100609.11
2019-02-08T10:41:45.544Z,100605.66
2019-02-08T10:44:35.172Z,100607.00
2019-02-08T10:47:34.020Z,100609.29
2019-02-08T10:50:28.246Z,100612.50
2019-02-08T10:53:20.776Z,100599.89
2019-02-08T10:56:15.791Z,100602.26
2019-02-08T10:59:20.822Z,100599.45
2019-02-08T11:02:16.659Z,100585.41
2019-02-08T11:05:12.747Z,100582.18
2019-02-08T11:08:10.351Z,100573.27
2019-02-08T11:11:06.641Z,100568.58
2019-02-08T11:13:56.730Z,100570.48
2019-02-08T11:16:48.296Z,100561.84
2019-02-08T11:19:16.849Z,100562.83
2019-02-08T11:21:47.255Z,100553.03
2019-02-08T11:24:18.359Z,100557.77
2019-02-08T11:26:47.917Z,100551.39
2019-02-08T11:29:17.470Z,100544.98
2019-02-08T11:31:47.716Z,100540.23
2019-02-08T11:34:17.312Z,100531.95
2019-02-08T11:36:46.871Z,100541.73
2019-02-08T11:39:16.782Z,100537.81
2019-02-08T11:41:46.539Z,100532.14
2019-02-08T11:44:16.077Z,100529.18
2019-02-08T11:46:45.606Z,100522.74
2019-02-08T11:49:15.234Z,100526.58
2019-02-08T11:51:44.930Z,100508.51
2019-02-08T11:54:14.266Z,100515.37
2019-02-08T11:56:43.510Z,100502.49
2019-02-08T11:59:12.792Z,100500.61
2019-02-08T12:01:42.716Z,100497.94
2019-02-08T12:04:12.331Z,100490.42
2019-02-08T12:06:41.944Z,100490.64
2019-02-08T12:09:12.490Z,100485.92
2019-02-08T12:11:41.757Z,100487.19
2019-02-08T12:14:11.990Z,100480.41
2019-02-08T12:16:43.854Z,100472.58
2019-02-08T12:19:13.319Z,100470.05
2019-02-08T12:21:42.546Z,100464.67
2019-02-08T12:24:12.262Z,100473.03
2019-02-08T12:26:41.485Z,100465.09
2019-02-08T12:29:11.044Z,100459.45
2019-02-08T12:31:40.282Z,100454.51
2019-02-08T12:34:09.810Z,100448.18
2019-02-08T12:36:39.989Z,100444.30
2019-02-08T12:39:11.144Z,100445.69
2019-02-08T12:41:40.397Z,100446.76
2019-02-08T12:44:10.005Z,100433.87
2019-02-08T12:46:39.346Z,100432.88
2019-02-08T12:49:08.769Z,100430.65
2019-02-08T12:51:38.953Z,100430.88
2019-02-08T12:54:08.205Z,100431.11
2019-02-08T12:56:45.205Z,100434.02
2019-02-08T12:59:09.622Z,100420.22
2019-02-08T13:01:39.164Z,100412.77
2019-02-08T13:04:08.480Z,100423.56
2019-02-08T13:06:37.962Z,100420.72
2019-02-08T13:09:09.500Z,100411.86
2019-02-08T13:11:38.942Z,100413.36
2019-02-08T13:14:08.424Z,100411.73
2019-02-08T13:16:37.755Z,100402.75
2019-02-08T13:19:07.151Z,100402.61
2019-02-08T13:21:36.832Z,100398.73
2019-02-08T13:24:07.108Z,100392.00
2019-02-08T13:26:36.351Z,100390.07
2019-02-08T13:29:05.660Z,100381.50
2019-02-08T13:31:34.971Z,100383.16
2019-02-08T13:34:04.637Z,100376.44
2019-02-08T13:36:35.211Z,100374.41
2019-02-08T13:39:06.891Z,100367.84
2019-02-08T13:41:36.513Z,100369.65
2019-02-08T13:44:05.941Z,100357.97
2019-02-08T13:46:35.167Z,100359.01
2019-02-08T13:49:04.418Z,100357.43
2019-02-08T13:51:34.720Z,100350.67
2019-02-08T13:54:04.804Z,100346.27
2019-02-08T13:56:34.058Z,100337.93
2019-02-08T13:59:05.383Z,100333.77
2019-02-08T14:01:35.537Z,100324.13
2019-02-08T14:04:04.973Z,100322.99
2019-02-08T14:06:34.473Z,100319.56
2019-02-08T14:09:05.633Z,100321.95
2019-02-08T14:11:34.931Z,100318.29
2019-02-08T14:14:04.778Z,100315.47
2019-02-08T14:16:34.075Z,100309.80
2019-02-08T14:19:03.403Z,100308.02
2019-02-08T14:21:34.668Z,100305.45
2019-02-08T14:24:03.909Z,100301.19
2019-02-08T14:26:33.137Z,100291.19
2019-02-08T14:29:03.392Z,100281.82
2019-02-08T14:31:32.639Z,100281.75
2019-02-08T14:34:02.188Z,100282.52
2019-02-08T14:36:31.428Z,100283.34
2019-02-08T14:39:00.749Z,100273.72
2019-02-08T14:41:33.682Z,100269.39
2019-02-08T14:44:02.965Z,100277.44
2019-02-08T14:46:36.282Z,100271.22
2019-02-08T14:49:05.702Z,100269.48
2019-02-08T14:51:35.340Z,100263.47
2019-02-08T14:54:06.897Z,100265.09
2019-02-08T14:56:36.176Z,100262.79
2019-02-08T14:59:05.595Z,100259.06
2019-02-08T15:01:35.734Z,100255.75
2019-02-08T15:04:07.471Z,100260.64
2019-02-08T15:06:36.689Z,100259.64
2019-02-08T15:09:08.546Z,100272.11
2019-02-08T15:11:38.713Z,100261.45
2019-02-08T15:14:08.305Z,100264.42
2019-02-08T15:16:38.522Z,100255.03
2019-02-08T15:19:07.761Z,100251.44
2019-02-08T15:21:37.088Z,100251.84
2019-02-08T15:24:06.584Z,100244.60
2019-02-08T15:26:36.142Z,100246.52
2019-02-08T15:29:05.557Z,100240.63
2019-02-08T15:31:34.888Z,100240.58
2019-02-08T15:34:05.752Z,100229.52
2019-02-08T15:36:35.002Z,100239.91
2019-02-08T15:39:07.506Z,100236.81
2019-02-08T15:41:36.769Z,100230.87
2019-02-08T15:44:06.118Z,100219.77
2019-02-08T15:46:35.419Z,100211.55
2019-02-08T15:49:04.724Z,100217.16
2019-02-08T15:51:34.284Z,100205.67
2019-02-08T15:54:03.636Z,100204.70
2019-02-08T15:56:32.998Z,100202.92
2019-02-08T15:59:02.331Z,100200.98
2019-02-08T16:01:31.578Z,100197.16
2019-02-08T16:04:00.817Z,100188.66
2019-02-08T16:06:30.239Z,100192.02
2019-02-08T16:08:59.495Z,100195.27
2019-02-08T16:11:28.805Z,100179.91
2019-02-08T16:14:00.087Z,100179.77
2019-02-08T16:16:29.632Z,100177.89
2019-02-08T16:18:58.882Z,100177.89
2019-02-08T16:21:28.097Z,100179.91
2019-02-08T16:23:59.515Z,100168.25
2019-02-08T16:26:30.132Z,100165.70
2019-02-08T16:28:59.469Z,100163.08
2019-02-08T16:31:28.929Z,100154.72
2019-02-08T16:33:59.405Z,100149.71
2019-02-08T16:36:28.818Z,100142.89
2019-02-08T16:38:59.099Z,100145.81
2019-02-08T16:41:28.325Z,100135.37
2019-02-08T16:43:57.643Z,100131.22
2019-02-08T16:46:28.263Z,100138.56
2019-02-08T16:48:57.506Z,100131.59
2019-02-08T16:51:27.778Z,100123.34
2019-02-08T16:53:57.043Z,100127.67
2019-02-08T16:56:26.323Z,100118.57
2019-02-08T16:58:55.629Z,100104.16
2019-02-08T17:01:24.925Z,100100.21
2019-02-08T17:03:54.232Z,100101.77
2019-02-08T17:06:23.540Z,100105.44
2019-02-08T17:08:52.768Z,100101.53
2019-02-08T17:11:22.023Z,100103.91
2019-02-08T17:13:51.255Z,100101.17
2019-02-08T17:16:20.584Z,100096.19
2019-02-08T17:18:49.829Z,100093.17
2019-02-08T17:21:19.172Z,100091.62
2019-02-08T17:23:48.413Z,100094.00
2019-02-08T17:26:18.736Z,100090.42
2019-02-08T17:28:47.975Z,100094.63
2019-02-08T17:31:17.231Z,100086.75
2019-02-08T17:33:46.469Z,100083.82
2019-02-08T17:36:15.729Z,100078.87
2019-02-08T17:38:44.981Z,100083.44
2019-02-08T17:41:15.227Z,100076.93
2019-02-08T17:43:44.464Z,100065.89
2019-02-08T17:46:13.726Z,100066.69
2019-02-08T17:48:44.873Z,100064.48
2019-02-08T17:51:14.114Z,100058.88
2019-02-08T17:53:44.314Z,100058.65
2019-02-08T17:56:13.550Z,100059.77
2019-02-08T17:58:42.792Z,100056.78
2019-02-08T18:01:13.049Z,100051.41
2019-02-08T18:03:42.291Z,100043.34
2019-02-08T18:06:12.586Z,100038.37
2019-02-08T18:08:41.779Z,100039.77
2019-02-08T18:11:13.020Z,100033.34
2019-02-08T18:13:42.267Z,100033.48
2019-02-08T18:16:11.490Z,100035.81
2019-02-08T18:18:40.802Z,100037.77
2019-02-08T18:21:10.035Z,100036.48
2019-02-08T18:23:39.309Z,100023.48
2019-02-08T18:26:09.516Z,100028.05
2019-02-08T18:28:38.756Z,100025.36
2019-02-08T18:31:08.004Z,100019.63
2019-02-08T18:33:37.269Z,100016.63
2019-02-08T18:36:06.510Z,100020.00
2019-02-08T18:38:35.746Z,100004.98
2019-02-08T18:41:05.064Z,100002.40
2019-02-08T18:43:34.292Z,99998.88
2019-02-08T18:46:07.549Z,100001.70
2019-02-08T18:48:36.803Z,99995.28
2019-02-08T18:51:06.024Z,99984.84
2019-02-08T18:53:35.260Z,99978.47
2019-02-08T18:56:04.564Z,99967.73
2019-02-08T18:58:33.811Z,99961.81
2019-02-08T19:01:03.022Z,99961.56
2019-02-08T19:03:32.293Z,99952.30
2019-02-08T19:06:01.501Z,99961.81
2019-02-08T19:08:32.648Z,99955.09
2019-02-08T19:11:01.894Z,99946.58
2019-02-08T19:13:31.106Z,99959.12
2019-02-08T19:16:00.429Z,99937.34
2019-02-08T19:18:29.832Z,99925.44
2019-02-08T19:21:00.072Z,99910.16
2019-02-08T19:23:29.331Z,99902.51
2019-02-08T19:25:58.587Z,99893.91
2019-02-08T19:28:28.786Z,99904.59
2019-02-08T19:30:58.043Z,99899.03
2019-02-08T19:33:27.287Z,99896.05
2019-02-08T19:35:56.546Z,99884.55
2019-02-08T19:38:25.769Z,99892.69
2019-02-08T19:40:55.026Z,99875.09
2019-02-08T19:43:24.378Z,99878.83
2019-02-08T19:45:53.677Z,99878.48
2019-02-08T19:48:22.926Z,99870.42
2019-02-08T19:50:52.194Z,99873.76
2019-02-08T19:53:21.545Z,99873.50
2019-02-08T19:55:50.785Z,99864.00
2019-02-08T19:58:20.016Z,99856.59
2019-02-08T20:00:49.281Z,99843.77
2019-02-08T20:03:20.388Z,99843.17
2019-02-08T20:05:49.642Z,99851.17
2019-02-08T20:08:18.979Z,99842.92
2019-02-08T20:10:51.143Z,99837.45
2019-02-08T20:13:20.379Z,99832.91
2019-02-08T20:15:49.634Z,99821.34
2019-02-08T20:18:18.868Z,99832.77
2019-02-08T20:20:48.178Z,99816.41
2019-02-08T20:23:17.375Z,99817.89
2019-02-08T20:25:46.631Z,99813.13
2019-02-08T20:28:16.849Z,99807.01
2019-02-08T20:30:47.045Z,99794.87
2019-02-08T20:33:16.353Z,99790.00
2019-02-08T20:35:49.625Z,99789.75
2019-02-08T20:38:19.882Z,99787.63
2019-02-08T20:40:50.795Z,99777.32
2019-02-08T20:43:21.057Z,99777.62
2019-02-08T20:45:50.273Z,99777.42
2019-02-08T20:48:21.473Z,99770.17
2019-02-08T20:50:50.974Z,99768.97
2019-02-08T20:53:20.699Z,99758.63
2019-02-08T20:55:50.148Z,99756.69
2019-02-08T20:58:20.583Z,99763.95
2019-02-08T21:00:51.693Z,99766.09
2019-02-08T21:03:22.455Z,99753.11
2019-02-08T21:05:51.924Z,99749.98
2019-02-08T21:08:21.565Z,99741.32
2019-02-08T21:10:51.101Z,99742.95
2019-02-08T21:13:23.900Z,99732.17
2019-02-08T21:15:53.329Z,99735.41
2019-02-08T21:18:23.801Z,99740.32
2019-02-08T21:20:53.299Z,99743.10
2019-02-08T21:23:23.206Z,99740.22
2019-02-08T21:25:53.616Z,99744.10
2019-02-08T21:28:23.266Z,99730.67
2019-02-08T21:30:54.325Z,99737.84
2019-02-08T21:33:24.959Z,99725.86
2019-02-08T21:35:54.609Z,99730.62
2019-02-08T21:38:25.657Z,99716.37
2019-02-08T21:40:55.245Z,99710.24
2019-02-08T21:43:24.670Z,99715.66
2019-02-08T21:45:54.294Z,99714.56
2019-02-08T21:48:23.735Z,99709.95
2019-02-08T21:50:53.340Z,99702.44
2019-02-08T21:53:22.753Z,99700.84
2019-02-08T21:55:52.519Z,99710.69
2019-02-08T21:58:22.068Z,99713.88
2019-02-08T22:00:51.593Z,99716.03
2019-02-08T22:03:21.118Z,99708.47
2019-02-08T22:05:53.685Z,99704.95
2019-02-08T22:08:23.350Z,99708.08
2019-02-08T22:10:52.903Z,99696.09
2019-02-08T22:13:23.347Z,99681.80
2019-02-08T22:15:52.918Z,99694.75
2019-02-08T22:18:22.424Z,99695.13
2019-02-08T22:20:52.018Z,99689.64
2019-02-08T22:23:21.580Z,99678.12
2019-02-08T22:25:51.185Z,99670.36
2019-02-08T22:28:20.595Z,99671.95
2019-02-08T22:30:51.076Z,99662.75
2019-02-08T22:33:20.566Z,99660.36
2019-02-08T22:35:51.040Z,99655.70
2019-02-08T22:38:22.768Z,99663.64
2019-02-08T22:40:53.621Z,99653.16
2019-02-08T22:43:23.160Z,99644.17
2019-02-08T22:45:52.751Z,99644.17
2019-02-08T22:48:22.253Z,99635.92
2019-02-08T22:50:51.679Z,99646.64
2019-02-08T22:53:21.235Z,99645.36
2019-02-08T22:55:50.644Z,99646.11
2019-02-08T22:58:20.179Z,99645.55
2019-02-08T23:00:55.887Z,99637.42
2019-02-08T23:03:25.500Z,99631.84
2019-02-08T23:05:55.036Z,99636.86
2019-02-08T23:08:24.568Z,99634.23
2019-02-08T23:10:55.711Z,99624.58
2019-02-08T23:13:25.309Z,99627.37
2019-02-08T23:15:54.896Z,99619.52
2019-02-08T23:18:24.239Z,99613.16
2019-02-08T23:20:53.614Z,99618.52
2019-02-08T23:23:22.990Z,99617.96
2019-02-08T23:25:52.584Z,99612.95
2019-02-08T23:28:21.951Z,99613.72
2019-02-08T23:30:51.420Z,99610.97
2019-02-08T23:33:20.864Z,99604.39
2019-02-08T23:35:50.249Z,99600.00
2019-02-08T23:38:19.506Z,99591.84
2019-02-08T23:40:48.732Z,99593.24
2019-02-08T23:43:18.895Z,99589.91
2019-02-08T23:45:48.148Z,99583.22
2019-02-08T23:48:17.394Z,99583.61
2019-02-08T23:50:47.542Z,99578.05
2019-02-08T23:53:16.841Z,99571.50
2019-02-08T23:55:46.074Z,99579.05
2019-02-08T23:58:16.235Z,99571.46
